createdAt,value
2018-08-06T00:00:18.968Z,19.91
2018-08-06T00:02:47.614Z,19.86
2018-08-06T00:05:16.410Z,19.83
2018-08-06T00:07:45.060Z,19.77
2018-08-06T00:10:16.530Z,19.74
2018-08-06T00:12:45.219Z,19.74
2018-08-06T00:15:14.651Z,19.69
2018-08-06T00:17:43.371Z,19.60
2018-08-06T00:20:13.273Z,19.57
2018-08-06T00:22:42.477Z,19.57
2018-08-06T00:25:12.712Z,19.56
2018-08-06T00:27:42.197Z,19.51
2018-08-06T00:30:12.438Z,19.51
2018-08-06T00:32:42.055Z,19.41
2018-08-06T00:35:11.304Z,19.31
2018-08-06T00:37:40.067Z,19.28
2018-08-06T00:40:11.838Z,19.20
2018-08-06T00:42:41.214Z,19.20
2018-08-06T00:45:11.871Z,19.14
2018-08-06T00:47:40.617Z,19.15
2018-08-06T00:50:09.732Z,19.14
2018-08-06T00:52:38.789Z,19.11
2018-08-06T00:55:10.595Z,19.08
2018-08-06T00:57:39.691Z,19.00
2018-08-06T01:00:10.970Z,19.01
2018-08-06T01:02:39.595Z,18.99
2018-08-06T01:05:09.850Z,18.93
2018-08-06T01:07:38.858Z,18.89
2018-08-06T01:10:09.383Z,18.87
2018-08-06T01:12:38.770Z,18.84
2018-08-06T01:15:08.145Z,18.83
2018-08-06T01:17:36.982Z,18.82
2018-08-06T01:20:07.347Z,18.83
2018-08-06T01:22:36.022Z,18.74
2018-08-06T01:25:05.162Z,18.69
2018-08-06T01:27:34.453Z,18.75
2018-08-06T01:30:04.442Z,18.69
2018-08-06T01:32:33.098Z,18.73
2018-08-06T01:35:01.868Z,18.77
2018-08-06T01:37:30.553Z,18.73
2018-08-06T01:39:59.219Z,18.73
2018-08-06T01:42:27.851Z,18.68
2018-08-06T01:44:56.458Z,18.60
2018-08-06T01:47:25.089Z,18.57
2018-08-06T01:49:53.770Z,18.50
2018-08-06T01:52:22.419Z,18.37
2018-08-06T01:54:51.787Z,18.45
2018-08-06T01:57:21.480Z,18.44
2018-08-06T01:59:50.105Z,18.39
2018-08-06T02:02:18.801Z,18.40
2018-08-06T02:04:47.404Z,18.42
2018-08-06T02:07:16.127Z,18.43
2018-08-06T02:09:44.787Z,18.42
2018-08-06T02:12:13.446Z,18.45
2018-08-06T02:14:42.154Z,18.40
2018-08-06T02:17:10.846Z,18.45
2018-08-06T02:19:39.556Z,18.44
2018-08-06T02:22:08.264Z,18.39
2018-08-06T02:24:37.026Z,18.32
2018-08-06T02:27:06.252Z,18.25
2018-08-06T02:29:34.932Z,18.19
2018-08-06T02:32:03.700Z,18.20
2018-08-06T02:34:32.323Z,18.08
2018-08-06T02:37:01.148Z,18.09
2018-08-06T02:39:29.831Z,18.09
2018-08-06T02:41:58.579Z,18.09
2018-08-06T02:44:27.335Z,18.03
2018-08-06T02:46:56.066Z,18.06
2018-08-06T02:49:24.746Z,18.05
2018-08-06T02:51:53.453Z,17.94
2018-08-06T02:54:22.159Z,17.96
2018-08-06T02:56:50.940Z,17.91
2018-08-06T02:59:19.646Z,17.85
2018-08-06T03:01:48.356Z,17.86
2018-08-06T03:04:17.055Z,17.84
2018-08-06T03:06:45.750Z,17.72
2018-08-06T03:09:14.539Z,17.72
2018-08-06T03:11:43.222Z,17.72
2018-08-06T03:14:11.911Z,17.73
2018-08-06T03:16:40.591Z,17.69
2018-08-06T03:19:09.243Z,17.53
2018-08-06T03:21:37.960Z,17.59
2018-08-06T03:24:06.691Z,17.56
2018-08-06T03:26:35.351Z,17.52
2018-08-06T03:29:04.157Z,17.51
2018-08-06T03:31:32.795Z,17.51
2018-08-06T03:34:01.451Z,17.49
2018-08-06T03:36:30.143Z,17.53
2018-08-06T03:38:58.820Z,17.55
2018-08-06T03:41:27.534Z,17.62
2018-08-06T03:43:56.182Z,17.64
2018-08-06T03:46:25.006Z,17.67
2018-08-06T03:48:54.063Z,17.77
2018-08-06T03:51:22.757Z,17.81
2018-08-06T03:53:51.428Z,17.74
2018-08-06T03:56:20.814Z,17.80
2018-08-06T03:58:50.692Z,17.88
2018-08-06T04:01:19.503Z,17.91
2018-08-06T04:03:48.510Z,17.98
2018-08-06T04:06:17.714Z,17.99
2018-08-06T04:08:46.413Z,18.07
2018-08-06T04:11:15.083Z,18.05
2018-08-06T04:13:44.599Z,18.04
2018-08-06T04:16:13.494Z,18.07
2018-08-06T04:18:42.319Z,18.05
2018-08-06T04:21:10.964Z,18.03
2018-08-06T04:23:39.603Z,18.09
2018-08-06T04:26:08.378Z,18.11
2018-08-06T04:28:37.106Z,18.18
2018-08-06T04:31:05.786Z,18.20
2018-08-06T04:33:34.421Z,18.18
2018-08-06T04:36:03.102Z,18.28
2018-08-06T04:38:31.791Z,18.33
2018-08-06T04:41:00.415Z,18.36
2018-08-06T04:43:29.354Z,18.41
2018-08-06T04:45:58.080Z,18.51
2018-08-06T04:48:26.753Z,18.57
2018-08-06T04:50:55.440Z,18.58
2018-08-06T04:53:24.084Z,18.61
2018-08-06T04:55:52.763Z,18.67
2018-08-06T04:58:21.444Z,18.70
2018-08-06T05:00:50.171Z,18.71
2018-08-06T05:03:18.921Z,18.76
2018-08-06T05:05:47.578Z,18.77
2018-08-06T05:08:16.234Z,18.84
2018-08-06T05:10:44.890Z,18.88
2018-08-06T05:13:13.592Z,18.97
2018-08-06T05:15:42.227Z,19.03
2018-08-06T05:18:10.880Z,19.03
2018-08-06T05:20:39.486Z,19.05
2018-08-06T05:23:08.202Z,19.18
2018-08-06T05:25:36.868Z,19.31
2018-08-06T05:28:05.655Z,19.31
2018-08-06T05:30:34.392Z,19.33
2018-08-06T05:33:03.117Z,19.41
2018-08-06T05:35:31.810Z,19.27
2018-08-06T05:39:29.857Z,19.41
2018-08-06T05:41:58.600Z,19.47
2018-08-06T05:44:27.271Z,19.59
2018-08-06T05:46:55.985Z,19.60
2018-08-06T05:49:24.730Z,19.70
2018-08-06T05:51:53.367Z,19.82
2018-08-06T05:54:22.013Z,19.89
2018-08-06T05:56:50.675Z,20.00
2018-08-06T05:59:19.379Z,20.08
2018-08-06T06:01:48.019Z,20.19
2018-08-06T06:04:16.674Z,20.30
2018-08-06T06:06:45.464Z,20.45
2018-08-06T06:09:14.128Z,20.52
2018-08-06T06:11:42.836Z,20.62
2018-08-06T06:14:11.536Z,20.71
2018-08-06T06:16:40.305Z,20.81
2018-08-06T06:19:09.023Z,20.93
2018-08-06T06:21:37.704Z,21.00
2018-08-06T06:24:06.561Z,21.12
2018-08-06T06:26:35.263Z,21.17
2018-08-06T06:29:04.030Z,21.21
2018-08-06T06:31:32.763Z,21.27
2018-08-06T06:34:01.488Z,21.40
2018-08-06T06:36:30.243Z,21.52
2018-08-06T06:38:58.950Z,21.57
2018-08-06T06:41:27.670Z,21.62
2018-08-06T06:43:56.360Z,21.55
2018-08-06T06:46:25.026Z,21.67
2018-08-06T06:48:53.796Z,21.60
2018-08-06T06:51:22.483Z,21.66
2018-08-06T06:53:51.164Z,21.78
2018-08-06T06:56:19.953Z,21.86
2018-08-06T06:58:48.642Z,22.00
2018-08-06T07:01:17.320Z,22.09
2018-08-06T07:03:46.044Z,22.16
2018-08-06T07:06:14.786Z,22.27
2018-08-06T07:08:43.528Z,22.42
2018-08-06T07:11:12.152Z,22.49
2018-08-06T07:13:40.888Z,22.59
2018-08-06T07:16:10.021Z,22.73
2018-08-06T07:18:38.673Z,22.72
2018-08-06T07:21:07.430Z,22.90
2018-08-06T07:23:36.129Z,22.91
2018-08-06T07:26:04.925Z,23.02
2018-08-06T07:28:33.507Z,23.05
2018-08-06T07:31:02.189Z,23.01
2018-08-06T07:33:30.857Z,23.14
2018-08-06T07:35:59.673Z,23.15
2018-08-06T07:38:28.543Z,23.21
2018-08-06T07:40:57.175Z,23.36
2018-08-06T07:43:25.961Z,23.52
2018-08-06T07:45:54.620Z,23.67
2018-08-06T07:48:23.353Z,23.73
2018-08-06T07:50:52.399Z,23.85
2018-08-06T07:53:21.118Z,24.02
2018-08-06T07:55:49.832Z,24.12
2018-08-06T07:58:18.517Z,24.23
2018-08-06T08:00:47.153Z,24.19
2018-08-06T08:03:15.841Z,24.29
2018-08-06T08:05:44.570Z,24.35
2018-08-06T08:08:13.235Z,24.38
2018-08-06T08:10:41.934Z,24.41
2018-08-06T08:13:10.609Z,24.61
2018-08-06T08:15:39.388Z,24.75
2018-08-06T08:18:08.110Z,24.85
2018-08-06T08:20:36.854Z,24.92
2018-08-06T08:23:05.554Z,25.03
2018-08-06T08:25:34.231Z,25.01
2018-08-06T08:28:02.905Z,25.17
2018-08-06T08:30:31.653Z,25.30
2018-08-06T08:33:01.071Z,25.39
2018-08-06T08:35:32.190Z,25.42
2018-08-06T08:38:01.363Z,25.41
2018-08-06T08:40:30.258Z,25.60
2018-08-06T08:42:58.944Z,25.70
2018-08-06T08:45:27.702Z,25.70
2018-08-06T08:47:56.381Z,25.84
2018-08-06T08:50:25.158Z,25.93
2018-08-06T08:52:53.804Z,26.07
2018-08-06T08:55:22.478Z,26.05
2018-08-06T08:57:51.142Z,26.23
2018-08-06T09:00:21.766Z,26.40
2018-08-06T09:02:51.400Z,26.51
2018-08-06T09:05:20.546Z,26.51
2018-08-06T09:07:50.038Z,26.70
2018-08-06T09:10:19.288Z,26.80
2018-08-06T09:12:48.305Z,26.84
2018-08-06T09:15:25.702Z,26.92
2018-08-06T09:17:54.391Z,26.82
2018-08-06T09:20:23.910Z,26.74
2018-08-06T09:22:52.596Z,26.82
2018-08-06T09:25:21.289Z,26.93
2018-08-06T09:27:50.796Z,27.02
2018-08-06T09:30:21.762Z,27.04
2018-08-06T09:32:55.876Z,27.06
2018-08-06T09:35:24.545Z,27.11
2018-08-06T09:37:53.316Z,27.30
2018-08-06T09:40:22.961Z,27.31
2018-08-06T09:42:52.043Z,27.56
2018-08-06T09:45:21.754Z,27.69
2018-08-06T09:47:51.777Z,27.26
2018-08-06T09:50:21.089Z,27.20
2018-08-06T09:52:51.039Z,27.55
2018-08-06T09:55:23.721Z,27.79
2018-08-06T09:57:52.594Z,27.85
2018-08-06T10:00:27.438Z,28.01
2018-08-06T10:02:57.562Z,28.08
2018-08-06T10:05:26.943Z,28.05
2018-08-06T10:07:55.640Z,28.07
2018-08-06T10:10:24.394Z,28.18
2018-08-06T10:12:53.109Z,28.28
2018-08-06T10:15:22.405Z,28.41
2018-08-06T10:17:53.467Z,28.49
2018-08-06T10:20:23.731Z,28.54
2018-08-06T10:22:52.383Z,28.76
2018-08-06T10:25:21.184Z,28.85
2018-08-06T10:27:49.897Z,28.66
2018-08-06T10:30:22.953Z,28.79
2018-08-06T10:32:51.583Z,28.89
2018-08-06T10:35:20.867Z,28.79
2018-08-06T10:37:49.526Z,28.65
2018-08-06T10:40:24.112Z,28.31
2018-08-06T10:42:53.165Z,28.38
2018-08-06T10:45:23.090Z,28.43
2018-08-06T10:47:52.210Z,28.67
2018-08-06T10:50:20.865Z,28.83
2018-08-06T10:52:49.514Z,29.24
2018-08-06T10:55:18.170Z,29.76
2018-08-06T10:57:47.176Z,30.03
2018-08-06T11:00:19.822Z,29.48
2018-08-06T11:02:49.060Z,29.75
2018-08-06T11:05:18.495Z,30.08
2018-08-06T11:07:47.182Z,30.75
2018-08-06T11:10:18.325Z,31.03
2018-08-06T11:12:47.007Z,31.41
2018-08-06T11:15:17.726Z,31.83
2018-08-06T11:17:46.515Z,32.23
2018-08-06T11:20:16.114Z,32.69
2018-08-06T11:22:44.883Z,32.69
2018-08-06T11:25:15.368Z,32.68
2018-08-06T11:27:44.107Z,32.43
2018-08-06T11:30:15.725Z,33.16
2018-08-06T11:32:44.822Z,33.39
2018-08-06T11:35:14.181Z,33.85
2018-08-06T11:37:43.193Z,34.17
2018-08-06T11:40:13.021Z,34.15
2018-08-06T11:42:42.452Z,34.43
2018-08-06T11:45:13.390Z,34.63
2018-08-06T11:47:42.101Z,34.48
2018-08-06T11:50:11.470Z,34.53
2018-08-06T11:52:40.100Z,34.31
2018-08-06T11:55:09.301Z,33.56
2018-08-06T11:57:38.404Z,33.65
2018-08-06T12:00:23.840Z,33.50
2018-08-06T12:02:52.553Z,34.00
2018-08-06T12:05:21.330Z,34.12
2018-08-06T12:07:49.960Z,34.53
2018-08-06T12:10:19.430Z,34.34
2018-08-06T12:12:48.927Z,34.81
2018-08-06T12:15:17.745Z,34.77
2018-08-06T12:17:46.534Z,34.91
2018-08-06T12:20:17.186Z,34.93
2018-08-06T12:22:47.057Z,34.79
2018-08-06T12:25:16.615Z,35.06
2018-08-06T12:27:45.980Z,35.63
2018-08-06T12:30:16.962Z,35.91
2018-08-06T12:32:46.433Z,36.05
2018-08-06T12:35:15.766Z,35.44
2018-08-06T12:37:44.821Z,35.27
2018-08-06T12:40:14.660Z,35.43
2018-08-06T12:42:43.917Z,35.57
2018-08-06T12:45:13.572Z,35.71
2018-08-06T12:47:43.181Z,35.73
2018-08-06T12:50:12.979Z,35.90
2018-08-06T12:52:42.430Z,35.99
2018-08-06T12:55:12.613Z,36.06
2018-08-06T12:57:42.017Z,36.07
2018-08-06T13:00:14.193Z,35.82
2018-08-06T13:02:43.071Z,35.98
2018-08-06T13:05:12.064Z,35.01
2018-08-06T13:07:41.006Z,35.19
2018-08-06T13:10:09.787Z,35.58
2018-08-06T13:12:39.520Z,35.51
2018-08-06T13:15:10.047Z,35.73
2018-08-06T13:17:38.805Z,35.95
2018-08-06T13:20:08.072Z,36.45
2018-08-06T13:22:36.894Z,36.41
2018-08-06T13:25:07.548Z,36.57
2018-08-06T13:27:36.237Z,36.73
2018-08-06T13:30:12.237Z,36.95
2018-08-06T13:32:41.571Z,36.75
2018-08-06T13:35:10.638Z,37.01
2018-08-06T13:37:39.334Z,37.36
2018-08-06T13:40:08.772Z,36.61
2018-08-06T13:42:37.496Z,36.47
2018-08-06T13:45:07.833Z,36.80
2018-08-06T13:47:36.727Z,37.01
2018-08-06T13:50:06.199Z,36.79
2018-08-06T13:52:34.850Z,36.84
2018-08-06T13:55:03.600Z,36.81
2018-08-06T13:57:32.280Z,36.93
2018-08-06T14:00:01.013Z,37.12
2018-08-06T14:02:29.692Z,37.37
2018-08-06T14:04:58.394Z,37.36
2018-08-06T14:07:27.073Z,37.54
2018-08-06T14:09:55.706Z,37.75
2018-08-06T14:12:24.381Z,37.61
2018-08-06T14:14:53.095Z,37.81
2018-08-06T14:17:21.736Z,37.57
2018-08-06T14:19:50.415Z,37.69
2018-08-06T14:22:19.062Z,37.50
2018-08-06T14:24:47.713Z,37.49
2018-08-06T14:27:16.437Z,37.27
2018-08-06T14:29:45.082Z,37.44
2018-08-06T14:32:13.741Z,37.68
2018-08-06T14:34:42.462Z,37.82
2018-08-06T14:37:11.094Z,37.28
2018-08-06T14:39:39.754Z,37.20
2018-08-06T14:42:08.446Z,37.23
2018-08-06T14:44:37.083Z,37.49
2018-08-06T14:47:06.066Z,37.45
2018-08-06T14:49:34.702Z,37.21
2018-08-06T14:52:03.791Z,37.25
2018-08-06T14:54:32.486Z,36.91
2018-08-06T14:57:01.323Z,36.55
2018-08-06T14:59:30.140Z,36.65
2018-08-06T15:01:59.124Z,36.53
2018-08-06T15:04:27.802Z,36.62
2018-08-06T15:06:56.452Z,36.83
2018-08-06T15:09:25.163Z,36.72
2018-08-06T15:11:53.826Z,35.77
2018-08-06T15:14:22.508Z,35.30
2018-08-06T15:16:51.198Z,34.44
2018-08-06T15:19:19.853Z,34.48
2018-08-06T15:21:48.546Z,34.65
2018-08-06T15:24:17.321Z,35.06
2018-08-06T15:26:45.975Z,35.13
2018-08-06T15:29:14.672Z,35.68
2018-08-06T15:31:43.358Z,35.76
2018-08-06T15:34:12.655Z,35.81
2018-08-06T15:36:41.275Z,35.69
2018-08-06T15:39:13.387Z,35.05
2018-08-06T15:41:42.346Z,34.97
2018-08-06T15:44:11.069Z,34.87
2018-08-06T15:46:39.761Z,34.75
2018-08-06T15:49:08.432Z,34.46
2018-08-06T15:51:37.212Z,34.29
2018-08-06T15:54:05.791Z,34.06
2018-08-06T15:56:34.435Z,33.99
2018-08-06T15:59:03.092Z,33.88
2018-08-06T16:01:32.570Z,33.66
2018-08-06T16:04:01.257Z,33.32
2018-08-06T16:06:30.459Z,33.05
2018-08-06T16:08:59.187Z,32.88
2018-08-06T16:11:27.988Z,32.81
2018-08-06T16:13:56.661Z,32.68
2018-08-06T16:16:25.492Z,32.54
2018-08-06T16:18:54.128Z,32.78
2018-08-06T16:21:22.827Z,33.00
2018-08-06T16:23:52.073Z,32.77
2018-08-06T16:26:20.668Z,32.64
2018-08-06T16:28:49.341Z,32.20
2018-08-06T16:31:17.981Z,31.73
2018-08-06T16:33:46.602Z,31.29
2018-08-06T16:36:15.281Z,31.04
2018-08-06T16:38:45.137Z,30.74
2018-08-06T16:41:13.771Z,30.64
2018-08-06T16:43:42.450Z,30.60
2018-08-06T16:46:11.109Z,30.25
2018-08-06T16:48:40.016Z,30.00
2018-08-06T16:51:08.804Z,29.89
2018-08-06T16:53:37.586Z,29.70
2018-08-06T16:56:06.254Z,29.38
2018-08-06T16:58:34.893Z,29.26
2018-08-06T17:01:03.705Z,29.17
2018-08-06T17:03:32.382Z,29.15
2018-08-06T17:06:01.174Z,29.12
2018-08-06T17:08:29.866Z,29.03
2018-08-06T17:10:58.631Z,28.89
2018-08-06T17:13:27.293Z,28.93
2018-08-06T17:15:56.016Z,28.92
2018-08-06T17:18:24.736Z,28.89
2018-08-06T17:20:53.476Z,28.89
2018-08-06T17:23:22.102Z,28.78
2018-08-06T17:25:50.786Z,28.87
2018-08-06T17:28:19.488Z,28.78
2018-08-06T17:30:48.177Z,28.72
2018-08-06T17:33:16.893Z,28.65
2018-08-06T17:35:45.592Z,28.56
2018-08-06T17:38:14.225Z,28.32
2018-08-06T17:40:42.972Z,28.42
2018-08-06T17:43:11.595Z,28.37
2018-08-06T17:45:40.289Z,28.30
2018-08-06T17:48:08.916Z,28.29
2018-08-06T17:50:37.559Z,28.29
2018-08-06T17:53:06.928Z,28.23
2018-08-06T17:55:35.680Z,28.13
2018-08-06T17:58:04.328Z,27.96
2018-08-06T18:00:33.026Z,27.96
2018-08-06T18:03:01.679Z,27.87
2018-08-06T18:05:30.369Z,27.80
2018-08-06T18:07:59.040Z,27.68
2018-08-06T18:10:28.747Z,27.59
2018-08-06T18:12:57.443Z,27.47
2018-08-06T18:15:26.118Z,27.31
2018-08-06T18:17:54.771Z,27.11
2018-08-06T18:20:23.526Z,27.05
2018-08-06T18:22:52.188Z,26.96
2018-08-06T18:25:21.131Z,26.92
2018-08-06T18:27:50.995Z,26.78
2018-08-06T18:30:21.331Z,26.70
2018-08-06T18:32:50.426Z,26.67
2018-08-06T18:35:19.791Z,26.60
2018-08-06T18:37:48.610Z,26.47
2018-08-06T18:40:18.817Z,26.10
2018-08-06T18:42:47.523Z,26.10
2018-08-06T18:45:18.252Z,25.74
2018-08-06T18:47:47.943Z,25.65
2018-08-06T18:50:17.409Z,25.74
2018-08-06T18:52:47.116Z,25.38
2018-08-06T18:55:16.349Z,25.35
2018-08-06T18:57:45.519Z,25.01
2018-08-06T19:00:18.328Z,24.89
2018-08-06T19:02:47.083Z,24.76
2018-08-06T19:05:15.841Z,24.73
2018-08-06T19:07:44.660Z,24.78
2018-08-06T19:10:13.569Z,24.65
2018-08-06T19:12:47.531Z,24.75
2018-08-06T19:15:16.231Z,24.53
2018-08-06T19:17:50.007Z,24.49
2018-08-06T19:20:18.812Z,24.40
2018-08-06T19:22:48.732Z,24.35
2018-08-06T19:25:22.568Z,24.46
2018-08-06T19:27:51.310Z,24.61
2018-08-06T19:30:20.136Z,24.68
2018-08-06T19:32:48.885Z,24.74
2018-08-06T19:35:17.632Z,24.77
2018-08-06T19:37:48.507Z,24.77
2018-08-06T19:40:17.187Z,24.80
2018-08-06T19:42:51.191Z,24.87
2018-08-06T19:45:19.909Z,24.92
2018-08-06T19:47:48.862Z,24.95
2018-08-06T19:50:22.953Z,24.95
2018-08-06T19:52:51.638Z,24.99
2018-08-06T19:55:25.594Z,24.98
2018-08-06T19:57:54.308Z,24.93
2018-08-06T20:00:23.010Z,24.94
2018-08-06T20:02:52.058Z,24.96
2018-08-06T20:05:20.703Z,24.86
2018-08-06T20:07:49.524Z,24.73
2018-08-06T20:10:18.261Z,24.66
2018-08-06T20:12:47.003Z,24.61
2018-08-06T20:15:18.088Z,24.62
2018-08-06T20:17:47.067Z,24.58
2018-08-06T20:20:15.783Z,24.55
2018-08-06T20:22:44.736Z,24.54
2018-08-06T20:25:17.004Z,24.45
2018-08-06T20:27:46.515Z,24.46
2018-08-06T20:30:16.734Z,24.32
2018-08-06T20:32:45.468Z,24.26
2018-08-06T20:35:15.503Z,24.22
2018-08-06T20:37:44.179Z,24.19
2018-08-06T20:40:13.120Z,24.13
2018-08-06T20:42:43.178Z,24.05
2018-08-06T20:45:14.783Z,24.08
2018-08-06T20:47:43.905Z,24.01
2018-08-06T20:50:15.282Z,23.95
2018-08-06T20:52:44.280Z,23.89
2018-08-06T20:55:13.025Z,23.77
2018-08-06T20:57:42.346Z,23.70
2018-08-06T21:00:16.232Z,23.54
2018-08-06T21:02:45.492Z,23.46
2018-08-06T21:05:14.173Z,23.37
2018-08-06T21:07:42.829Z,23.27
2018-08-06T21:10:13.454Z,23.18
2018-08-06T21:12:42.210Z,23.18
2018-08-06T21:15:12.214Z,23.15
2018-08-06T21:17:41.124Z,23.15
2018-08-06T21:20:14.313Z,23.16
2018-08-06T21:22:44.429Z,23.07
2018-08-06T21:25:13.413Z,23.04
2018-08-06T21:27:43.239Z,22.92
2018-08-06T21:30:14.527Z,22.97
2018-08-06T21:32:47.736Z,23.02
2018-08-06T21:35:17.216Z,23.04
2018-08-06T21:37:46.489Z,22.95
2018-08-06T21:40:15.227Z,22.90
2018-08-06T21:42:43.898Z,22.80
2018-08-06T21:45:12.541Z,22.78
2018-08-06T21:47:41.203Z,22.71
2018-08-06T21:50:10.917Z,22.60
2018-08-06T21:52:39.542Z,22.51
2018-08-06T21:55:09.071Z,22.50
2018-08-06T21:57:37.764Z,22.34
2018-08-06T22:00:15.663Z,22.27
2018-08-06T22:02:44.298Z,22.12
2018-08-06T22:05:13.010Z,22.08
2018-08-06T22:07:41.683Z,22.04
2018-08-06T22:10:10.457Z,21.98
2018-08-06T22:12:39.127Z,21.85
2018-08-06T22:15:07.803Z,21.71
2018-08-06T22:17:36.512Z,21.73
2018-08-06T22:20:05.544Z,21.61
2018-08-06T22:22:34.259Z,21.57
2018-08-06T22:25:02.936Z,21.51
2018-08-06T22:27:31.590Z,21.44
2018-08-06T22:30:00.347Z,21.45
2018-08-06T22:32:28.963Z,21.42
2018-08-06T22:34:57.856Z,21.38
2018-08-06T22:37:26.542Z,21.29
2018-08-06T22:39:55.187Z,21.35
2018-08-06T22:42:23.831Z,21.28
2018-08-06T22:44:52.487Z,21.22
2018-08-06T22:47:21.137Z,21.17
2018-08-06T22:49:49.797Z,21.10
2018-08-06T22:52:18.480Z,21.12
2018-08-06T22:54:47.149Z,21.09
2018-08-06T23:00:16.152Z,20.96
2018-08-06T23:02:45.371Z,20.96
2018-08-06T23:05:15.899Z,20.90
2018-08-06T23:07:44.820Z,20.85
2018-08-06T23:10:15.062Z,20.84
2018-08-06T23:12:43.803Z,20.70
2018-08-06T23:15:15.739Z,20.78
2018-08-06T23:17:45.040Z,20.77
2018-08-06T23:20:13.753Z,20.73
2018-08-06T23:22:42.466Z,20.63
2018-08-06T23:25:11.250Z,20.66
2018-08-06T23:27:39.981Z,20.56
2018-08-06T23:30:12.754Z,20.60
2018-08-06T23:32:41.803Z,20.56
2018-08-06T23:35:11.968Z,20.52
2018-08-06T23:37:41.783Z,20.50
2018-08-06T23:40:11.709Z,20.48
2018-08-06T23:42:41.164Z,20.49
2018-08-06T23:45:11.159Z,20.48
2018-08-06T23:47:40.591Z,20.44
2018-08-06T23:50:11.412Z,20.38
2018-08-06T23:52:41.237Z,20.36
2018-08-06T23:55:11.030Z,20.38
2018-08-06T23:57:39.708Z,20.30
